Loda, Illinois
Current Conditions -  °F | °C
As of 7:30 AM on Saturday 27 Dec 2014 (Local Time) from KTIP Reporting Station
Haze Haze  
Wind Chill: 42°   Ceiling: 200
Heat Index: 47°   Visibility: 1.5mi
Dew Point: 47°   Wind: 12mph
Humidity: 97%   Direction: 210°SSW
Pressure: 30.06"   Gusts: NA
Location:  40.52°N, 88.07°W
Report Text: KTIP 271330Z AUTO 21010KT 1 1/2SM BR OVC002 09/08 A3006 RMK AO2 T00860082
Loading
Personal Weather Stations






























Interactive Weather Map New forecast layout! Learn more

10-Day Weather Forecast

Advertisements
Track Severe Weather on mobile